Time;durP1;ratioP1;P1;durP2;ratioP2;P2;SDS_P1;SDS_P2;PMS_P1;PMS_P2;Temp;Humidity;BMP_temperature;BMP_pressure;BME280_temperature;BME280_humidity;BME280_pressure;Samples;Min_cycle;Max_cycle;Signal;HPM_P1;HPM_P2
2022/08/25 00:01:30;;;;;;;9.33;8.40;;;20.60;99.90;;;;;;5068320;28;20531;-63
2022/08/25 00:03:57;;;;;;;10.00;8.47;;;20.60;99.90;;;;;;5062376;28;20198;-64
2022/08/25 00:06:23;;;;;;;9.27;8.13;;;20.60;99.90;;;;;;5066668;28;20195;-63
2022/08/25 00:08:49;;;;;;;11.87;7.50;;;20.60;99.90;;;;;;5062165;28;20198;-64
2022/08/25 00:11:22;;;;;;;9.33;8.43;;;20.50;99.90;;;;;;5068085;28;20217;-63
2022/08/25 00:13:52;;;;;;;9.97;8.50;;;20.50;99.90;;;;;;5060323;28;20206;-63
2022/08/25 00:16:20;;;;;;;8.73;7.83;;;20.50;99.90;;;;;;5068102;28;20263;-63
2022/08/25 00:18:48;;;;;;;8.23;7.33;;;20.40;99.90;;;;;;5061224;28;20229;-63
2022/08/25 00:21:14;;;;;;;8.57;7.70;;;20.40;99.90;;;;;;5068315;28;20356;-63
2022/08/25 00:23:41;;;;;;;9.00;8.00;;;20.40;99.90;;;;;;5060331;28;20200;-63
2022/08/25 00:26:08;;;;;;;9.83;8.33;;;20.30;99.90;;;;;;5068065;28;20276;-63
2022/08/25 00:28:35;;;;;;;10.47;7.93;;;20.30;99.90;;;;;;5059128;28;20208;-63
2022/08/25 00:31:01;;;;;;;9.03;7.93;;;20.30;99.90;;;;;;5067643;28;20251;-64
2022/08/25 00:33:29;;;;;;;11.73;8.83;;;20.30;99.90;;;;;;5057967;28;20453;-63
2022/08/25 00:35:56;;;;;;;8.60;7.70;;;20.30;99.90;;;;;;5068072;28;20570;-64
2022/08/25 00:38:21;;;;;;;9.33;8.23;;;20.20;99.90;;;;;;5046783;28;20682;-63
2022/08/25 00:41:04;;;;;;;9.17;8.33;;;20.20;99.90;;;;;;5067776;28;20174;-64
2022/08/25 00:43:53;;;;;;;8.67;7.67;;;20.20;99.90;;;;;;5058516;28;20202;-64
2022/08/25 00:46:32;;;;;;;13.27;8.70;;;20.10;99.90;;;;;;5044646;28;20203;-64
2022/08/25 00:49:15;;;;;;;10.63;8.90;;;20.10;99.90;;;;;;5061619;28;20217;-64
2022/08/25 00:51:46;;;;;;;9.87;8.90;;;20.00;99.90;;;;;;5068176;28;20190;-64
2022/08/25 00:54:22;;;;;;;10.40;9.40;;;20.00;99.90;;;;;;5063621;28;20201;-63
2022/08/25 00:56:50;;;;;;;9.40;8.43;;;20.00;99.90;;;;;;5048425;28;20719;-63
2022/08/25 00:59:18;;;;;;;9.73;8.13;;;20.00;99.90;;;;;;5065919;28;20213;-63
2022/08/25 01:01:44;;;;;;;13.53;8.53;;;20.10;99.90;;;;;;5048226;28;20208;-63
2022/08/25 01:04:10;;;;;;;9.93;8.80;;;20.10;99.90;;;;;;5048533;28;20689;-63
2022/08/25 01:06:39;;;;;;;13.30;8.90;;;20.10;99.90;;;;;;5066787;28;20190;-63
2022/08/25 01:09:06;;;;;;;8.97;8.07;;;20.10;99.90;;;;;;5061808;28;20281;-63
2022/08/25 01:11:33;;;;;;;9.37;8.57;;;20.10;99.90;;;;;;5068043;28;20219;-63
2022/08/25 01:14:02;;;;;;;9.47;8.53;;;20.10;99.90;;;;;;5063177;28;20200;-62
2022/08/25 01:16:27;;;;;;;9.90;8.90;;;20.10;99.90;;;;;;5071865;28;20215;-63
2022/08/25 01:18:56;;;;;;;9.83;8.90;;;20.00;99.90;;;;;;5064855;28;20595;-63
2022/08/25 01:21:24;;;;;;;10.27;8.40;;;19.90;99.90;;;;;;5071795;28;20193;-63
2022/08/25 01:23:51;;;;;;;9.87;8.87;;;19.90;99.90;;;;;;5064000;28;20687;-63
2022/08/25 01:26:29;;;;;;;10.67;9.37;;;19.90;99.90;;;;;;5072051;28;20190;-63
2022/08/25 01:31:40;;;;;;;9.07;8.20;;;19.90;99.90;;;;;;5051893;28;20601;-65
2022/08/25 01:34:14;;;;;;;11.40;8.97;;;19.80;99.90;;;;;;5064587;28;20676;-65
2022/08/25 01:36:42;;;;;;;8.83;7.93;;;19.80;99.90;;;;;;5052169;28;20218;-64
2022/08/25 01:39:08;;;;;;;10.70;9.30;;;19.80;99.90;;;;;;5064865;28;20198;-64
2022/08/25 01:41:53;;;;;;;13.50;9.13;;;19.80;99.90;;;;;;5070973;28;20256;-64
2022/08/25 01:44:19;;;;;;;10.30;9.10;;;19.80;99.90;;;;;;5066019;28;20204;-64
2022/08/25 01:46:44;;;;;;;8.80;7.83;;;19.80;99.90;;;;;;5071212;28;20660;-64
2022/08/25 01:49:10;;;;;;;10.27;9.27;;;19.70;99.90;;;;;;5065329;28;20582;-64
2022/08/25 01:51:45;;;;;;;15.00;10.10;;;19.70;99.90;;;;;;5071758;28;20185;-64
2022/08/25 01:54:11;;;;;;;9.77;8.73;;;19.70;99.90;;;;;;5065303;28;20197;-64
2022/08/25 01:56:37;;;;;;;9.77;8.80;;;19.70;99.90;;;;;;5071540;28;20626;-65
2022/08/25 01:59:03;;;;;;;10.50;8.27;;;19.70;99.90;;;;;;5064068;28;20204;-64
2022/08/25 02:01:28;;;;;;;10.53;9.27;;;19.70;99.90;;;;;;5071257;28;20549;-64
2022/08/25 02:03:55;;;;;;;11.47;8.30;;;19.70;99.90;;;;;;5062916;28;20201;-65
2022/08/25 02:06:24;;;;;;;10.83;8.53;;;19.70;99.90;;;;;;5071016;28;20260;-65
2022/08/25 02:08:52;;;;;;;11.17;9.00;;;19.70;99.90;;;;;;5061079;28;20250;-63
2022/08/25 02:11:17;;;;;;;10.93;9.60;;;19.60;99.90;;;;;;5070810;28;20201;-63
2022/08/25 02:13:43;;;;;;;14.60;9.20;;;19.60;99.90;;;;;;5060662;28;20201;-63
2022/08/25 02:16:16;;;;;;;10.90;9.80;;;19.60;99.90;;;;;;5051342;28;20562;-63
2022/08/25 02:18:42;;;;;;;13.10;9.57;;;19.60;99.90;;;;;;5059309;28;20206;-63
2022/08/25 02:21:10;;;;;;;11.97;10.63;;;19.50;99.90;;;;;;5050705;28;20541;-63
2022/08/25 02:23:35;;;;;;;14.13;9.60;;;19.50;99.90;;;;;;5068362;28;20244;-64
2022/08/25 02:26:01;;;;;;;12.83;10.17;;;19.50;99.90;;;;;;5069892;28;20190;-64
2022/08/25 02:28:26;;;;;;;10.77;9.67;;;19.50;99.90;;;;;;5049800;28;20679;-63
2022/08/25 02:30:52;;;;;;;11.30;10.10;;;19.50;99.90;;;;;;5069928;28;20201;-64
2022/08/25 02:33:18;;;;;;;13.50;9.67;;;19.50;99.90;;;;;;5049352;28;20215;-64
2022/08/25 02:35:43;;;;;;;16.67;9.93;;;19.50;99.90;;;;;;5050848;28;20209;-64
2022/08/25 02:38:09;;;;;;;11.33;9.70;;;19.40;99.90;;;;;;5067833;28;20248;-64
2022/08/25 02:40:35;;;;;;;13.67;10.17;;;19.40;99.90;;;;;;5070635;28;20185;-64
2022/08/25 02:43:01;;;;;;;11.53;10.43;;;19.40;99.90;;;;;;5068129;28;20194;-65
2022/08/25 02:45:26;;;;;;;11.23;10.03;;;19.40;99.90;;;;;;5070881;28;20185;-65
2022/08/25 02:47:52;;;;;;;12.87;11.43;;;19.40;99.90;;;;;;5068368;28;20288;-65
2022/08/25 02:50:18;;;;;;;12.13;10.93;;;19.30;99.90;;;;;;5070097;28;20229;-65
2022/08/25 02:52:44;;;;;;;14.63;10.27;;;19.30;99.90;;;;;;5067872;28;20219;-65
2022/08/25 02:55:12;;;;;;;11.23;10.00;;;19.30;99.90;;;;;;5069747;28;20182;-65
2022/08/25 02:57:38;;;;;;;11.93;10.50;;;19.30;99.90;;;;;;5048352;28;20205;-65
2022/08/25 03:00:05;;;;;;;14.90;12.47;;;19.30;99.90;;;;;;5049872;28;20175;-64
2022/08/25 03:02:31;;;;;;;16.67;12.40;;;19.30;99.90;;;;;;5069648;28;20279;-65
2022/08/25 03:04:56;;;;;;;18.57;15.97;;;19.20;99.90;;;;;;5068292;28;20284;-65
2022/08/25 03:07:22;;;;;;;13.93;12.50;;;19.30;99.90;;;;;;5070086;28;20598;-65
2022/08/25 03:09:47;;;;;;;13.43;11.03;;;19.30;99.90;;;;;;5067499;28;20205;-65
2022/08/25 03:12:13;;;;;;;13.63;12.23;;;19.20;99.90;;;;;;5069974;28;20197;-65
2022/08/25 03:14:39;;;;;;;16.40;13.17;;;19.20;99.90;;;;;;5065993;28;20734;-64
2022/08/25 03:17:06;;;;;;;12.63;11.30;;;19.20;99.90;;;;;;5069663;28;20214;-64
2022/08/25 03:19:32;;;;;;;15.57;12.57;;;19.20;99.90;;;;;;5064233;28;20194;-65
2022/08/25 03:21:58;;;;;;;13.80;12.20;;;19.20;99.90;;;;;;5070029;28;20227;-65
2022/08/25 03:24:24;;;;;;;14.97;12.73;;;19.20;99.90;;;;;;5063116;28;20210;-65
2022/08/25 03:26:53;;;;;;;17.43;12.10;;;19.20;99.90;;;;;;5069876;28;20190;-63
2022/08/25 03:29:25;;;;;;;13.47;12.00;;;19.10;99.90;;;;;;5061927;28;20576;-64
2022/08/25 03:31:52;;;;;;;14.47;12.57;;;19.20;99.90;;;;;;5049365;28;20187;-64
2022/08/25 03:34:18;;;;;;;15.13;12.43;;;19.20;99.90;;;;;;5060445;28;20212;-64
2022/08/25 03:36:46;;;;;;;17.53;12.87;;;19.10;99.90;;;;;;5068629;28;20265;-64
2022/08/25 03:39:12;;;;;;;16.33;12.60;;;19.10;99.90;;;;;;5060166;28;20198;-63
2022/08/25 03:41:38;;;;;;;14.87;12.20;;;19.10;99.90;;;;;;5069221;28;20282;-65
2022/08/25 03:44:06;;;;;;;14.73;11.77;;;19.10;99.90;;;;;;5059131;28;20607;-64
2022/08/25 03:46:39;;;;;;;17.60;13.10;;;19.10;99.90;;;;;;5068948;28;20216;-64
2022/08/25 03:49:08;;;;;;;13.83;11.87;;;19.10;99.90;;;;;;5047149;28;20229;-63
2022/08/25 03:51:36;;;;;;;14.93;12.27;;;19.10;99.90;;;;;;5068404;28;20288;-64
2022/08/25 03:54:03;;;;;;;13.63;12.23;;;19.10;99.90;;;;;;5047277;28;20205;-64
2022/08/25 03:56:29;;;;;;;16.70;13.67;;;19.10;99.90;;;;;;5068141;28;20213;-64
2022/08/25 03:58:55;;;;;;;17.47;12.50;;;19.10;99.90;;;;;;5047874;28;20273;-65
2022/08/25 04:01:21;;;;;;;17.10;13.07;;;19.10;99.90;;;;;;5067656;28;20256;-64
2022/08/25 04:03:47;;;;;;;14.67;12.97;;;19.00;99.90;;;;;;5047118;28;20198;-64
2022/08/25 04:06:15;;;;;;;16.30;14.00;;;19.00;99.90;;;;;;5068005;28;20196;-68
2022/08/25 04:08:41;;;;;;;15.90;14.30;;;19.00;99.90;;;;;;5046676;28;20594;-65
2022/08/25 04:11:09;;;;;;;16.73;14.13;;;19.00;99.90;;;;;;5048944;28;20190;-64
2022/08/25 04:13:35;;;;;;;18.90;13.60;;;19.00;99.90;;;;;;5066290;28;20208;-64
2022/08/25 04:16:02;;;;;;;22.03;16.30;;;19.00;99.90;;;;;;5068540;28;20207;-64
2022/08/25 04:18:29;;;;;;;19.60;15.47;;;19.10;99.90;;;;;;5066287;28;20255;-64
2022/08/25 04:21:02;;;;;;;18.70;15.77;;;19.10;99.90;;;;;;5068612;28;20178;-64
2022/08/25 04:23:28;;;;;;;20.93;17.97;;;19.10;99.90;;;;;;5051978;28;20598;-64
2022/08/25 04:25:53;;;;;;;27.67;18.27;;;19.10;99.90;;;;;;5054133;28;20190;-65
2022/08/25 04:28:19;;;;;;;24.57;18.13;;;19.10;99.90;;;;;;5065340;28;20201;-65
2022/08/25 04:30:47;;;;;;;21.97;18.60;;;19.10;99.90;;;;;;5068601;28;20727;-64
2022/08/25 04:33:13;;;;;;;23.17;18.43;;;19.10;99.90;;;;;;5066063;28;20712;-64
2022/08/25 04:35:40;;;;;;;24.43;17.97;;;19.10;99.90;;;;;;5068064;28;20224;-64
2022/08/25 04:38:05;;;;;;;28.30;20.17;;;19.10;99.90;;;;;;5066110;28;20197;-64
2022/08/25 04:40:31;;;;;;;27.93;19.43;;;19.10;99.90;;;;;;5067960;28;20667;-63
2022/08/25 04:42:56;;;;;;;23.47;17.87;;;19.10;99.90;;;;;;5066244;28;20194;-63
2022/08/25 04:45:22;;;;;;;28.53;20.07;;;19.10;99.90;;;;;;5068065;28;20196;-63
2022/08/25 04:47:48;;;;;;;28.57;18.67;;;19.20;99.90;;;;;;5067444;28;20246;-63
2022/08/25 04:50:13;;;;;;;23.57;18.87;;;19.20;99.90;;;;;;5064906;28;20232;-63
2022/08/25 04:52:39;;;;;;;25.47;17.80;;;19.20;99.90;;;;;;5067882;28;20213;-64
2022/08/25 04:55:04;;;;;;;26.50;19.90;;;19.20;99.90;;;;;;5063690;28;20213;-64
2022/08/25 04:57:30;;;;;;;23.60;19.63;;;19.20;99.90;;;;;;5066875;28;20213;-64
2022/08/25 04:59:55;;;;;;;22.47;18.50;;;19.20;99.90;;;;;;5062932;28;20327;-63
2022/08/25 05:02:24;;;;;;;22.53;18.57;;;19.20;99.90;;;;;;5067498;28;20197;-65
2022/08/25 05:04:50;;;;;;;26.90;19.40;;;19.20;99.90;;;;;;5061901;28;20233;-64
2022/08/25 05:07:16;;;;;;;23.23;18.50;;;19.20;99.90;;;;;;5067543;28;20609;-65
2022/08/25 05:09:41;;;;;;;23.77;17.57;;;19.20;99.90;;;;;;5060948;28;20283;-64
2022/08/25 05:12:07;;;;;;;20.90;17.30;;;19.20;99.90;;;;;;5067274;28;20362;-64
2022/08/25 05:14:33;;;;;;;23.90;18.53;;;19.20;99.90;;;;;;5058360;28;20259;-64
2022/08/25 05:16:59;;;;;;;19.90;17.67;;;19.30;99.90;;;;;;5067215;28;20205;-64
2022/08/25 05:19:25;;;;;;;18.00;16.07;;;19.30;99.90;;;;;;5058114;28;20204;-64
2022/08/25 05:21:52;;;;;;;20.53;17.70;;;19.40;99.90;;;;;;5067780;28;20338;-64
2022/08/25 05:24:18;;;;;;;24.17;17.40;;;19.40;99.90;;;;;;5046493;28;20252;-63
2022/08/25 05:26:44;;;;;;;21.13;17.83;;;19.40;99.90;;;;;;5068025;28;20181;-64
2022/08/25 05:29:10;;;;;;;21.70;17.47;;;19.40;99.90;;;;;;5046465;28;20282;-64
2022/08/25 05:31:36;;;;;;;20.63;16.40;;;19.40;99.90;;;;;;5067048;28;20183;-66
2022/08/25 05:34:05;;;;;;;19.07;16.70;;;19.50;99.90;;;;;;5045868;28;20987;-64
2022/08/25 05:36:31;;;;;;;17.87;15.97;;;19.50;99.90;;;;;;5067385;28;20213;-65
2022/08/25 05:38:57;;;;;;;17.47;15.53;;;19.60;99.90;;;;;;5046334;28;20221;-63
2022/08/25 05:41:27;;;;;;;18.53;16.53;;;19.60;99.90;;;;;;5047679;28;20264;-64
2022/08/25 05:43:53;;;;;;;22.40;18.13;;;19.70;99.90;;;;;;5065831;28;20251;-61
2022/08/25 05:46:20;;;;;;;22.40;18.40;;;19.70;99.90;;;;;;5067527;28;20179;-65
2022/08/25 05:48:46;;;;;;;21.87;16.80;;;19.80;99.90;;;;;;5064787;28;20243;-62
2022/08/25 05:51:13;;;;;;;22.10;16.40;;;19.80;99.90;;;;;;5067818;28;20184;-63
2022/08/25 05:53:42;;;;;;;21.77;17.37;;;19.90;99.90;;;;;;5045982;28;20194;-63
2022/08/25 05:56:08;;;;;;;22.03;17.27;;;19.90;99.90;;;;;;5047663;28;20213;-63
2022/08/25 05:58:35;;;;;;;23.00;19.53;;;20.00;99.90;;;;;;5065539;28;20209;-63
2022/08/25 06:02:39;;;;;;;23.90;16.73;;;20.00;99.90;;;;;;5068798;28;20173;-63
2022/08/25 06:03:52;;;;;;;18.13;15.60;;;20.00;99.90;;;;;;5048981;28;20206;-63
2022/08/25 06:06:17;;;;;;;20.40;16.87;;;20.10;99.90;;;;;;5051167;28;20193;-63
2022/08/25 06:08:43;;;;;;;22.10;18.10;;;20.10;99.90;;;;;;5068460;28;20205;-62
2022/08/25 06:11:10;;;;;;;25.47;16.90;;;20.20;99.90;;;;;;5070627;28;20624;-63
2022/08/25 06:13:36;;;;;;;20.00;16.60;;;20.20;99.90;;;;;;5068549;28;20692;-63
2022/08/25 06:16:01;;;;;;;22.73;16.13;;;20.20;99.90;;;;;;5070988;28;20246;-63
2022/08/25 06:18:26;;;;;;;17.50;15.20;;;20.30;99.90;;;;;;5068267;28;20182;-63
2022/08/25 06:20:52;;;;;;;18.17;14.60;;;20.30;99.90;;;;;;5070409;28;20667;-63
2022/08/25 06:23:18;;;;;;;18.27;15.53;;;20.40;99.90;;;;;;5069149;28;20218;-63
2022/08/25 06:25:51;;;;;;;19.67;15.20;;;20.30;99.90;;;;;;5070267;28;20198;-65
2022/08/25 06:28:18;;;;;;;18.67;14.47;;;20.40;99.90;;;;;;5049146;28;20229;-65
2022/08/25 06:30:43;;;;;;;22.40;15.20;;;20.40;99.90;;;;;;5050891;28;20183;-64
2022/08/25 06:33:10;;;;;;;20.40;16.43;;;20.40;99.90;;;;;;5069658;28;20579;-64
2022/08/25 06:35:36;;;;;;;23.30;16.00;;;20.50;99.90;;;;;;5068360;28;20396;-65
2022/08/25 06:38:01;;;;;;;17.20;15.40;;;20.50;99.90;;;;;;5070070;28;20186;-65
2022/08/25 06:40:26;;;;;;;21.60;16.83;;;20.60;99.90;;;;;;5066768;28;20202;-65
2022/08/25 06:42:52;;;;;;;21.43;16.47;;;20.70;99.90;;;;;;5070457;28;20315;-65
2022/08/25 06:45:18;;;;;;;18.50;16.60;;;20.70;99.90;;;;;;5065248;28;20203;-64
2022/08/25 06:47:44;;;;;;;21.23;15.23;;;20.70;99.90;;;;;;5070298;28;20662;-65
2022/08/25 06:50:09;;;;;;;27.10;17.47;;;20.70;99.90;;;;;;5063818;28;20783;-65
2022/08/25 06:52:35;;;;;;;19.83;16.37;;;20.70;99.90;;;;;;5069997;28;20201;-64
2022/08/25 06:55:02;;;;;;;22.57;16.47;;;20.70;99.90;;;;;;5062655;28;20191;-66
2022/08/25 06:57:27;;;;;;;21.87;16.77;;;20.80;99.90;;;;;;5069919;28;20202;-65
2022/08/25 06:59:53;;;;;;;20.90;17.93;;;20.80;99.90;;;;;;5061249;28;20686;-65
2022/08/25 07:02:19;;;;;;;22.77;17.63;;;20.90;99.90;;;;;;5068842;28;20178;-65
2022/08/25 07:04:45;;;;;;;21.10;16.57;;;20.90;99.90;;;;;;5064407;28;20205;-69
2022/08/25 07:07:10;;;;;;;19.43;16.07;;;21.00;99.90;;;;;;5067105;28;20190;-67
2022/08/25 07:09:35;;;;;;;22.90;18.40;;;21.00;99.90;;;;;;5055204;28;20206;-65
2022/08/25 07:12:03;;;;;;;22.33;18.00;;;21.10;99.90;;;;;;5069227;28;20182;-67
2022/08/25 07:14:29;;;;;;;21.60;17.13;;;21.10;99.90;;;;;;5060205;28;20208;-67
2022/08/25 07:16:55;;;;;;;20.27;15.37;;;21.10;99.90;;;;;;5068990;28;20204;-64
2022/08/25 07:19:20;;;;;;;18.67;15.97;;;21.20;99.90;;;;;;5064639;28;20190;-64
2022/08/25 07:21:51;;;;;;;20.27;17.60;;;21.20;99.90;;;;;;5067056;28;20625;-66
2022/08/25 07:24:17;;;;;;;20.93;15.37;;;21.20;99.90;;;;;;5065918;28;20202;-65
2022/08/25 07:26:45;;;;;;;24.97;17.40;;;21.30;99.90;;;;;;5069394;28;20617;-66
2022/08/25 07:29:18;;;;;;;20.20;15.80;;;21.40;99.90;;;;;;5061529;28;20218;-65
2022/08/25 07:31:44;;;;;;;19.67;16.80;;;21.40;99.90;;;;;;5049754;28;20225;-65
2022/08/25 07:36:55;;;;;;;19.70;17.33;;;21.70;99.90;;;;;;5069571;28;20207;-66
2022/08/25 07:39:21;;;;;;;21.23;16.93;;;21.80;99.90;;;;;;5067619;28;20194;-66
2022/08/25 07:41:47;;;;;;;22.27;17.00;;;21.90;99.90;;;;;;5069982;28;20185;-66
2022/08/25 07:44:13;;;;;;;21.80;15.77;;;22.00;99.90;;;;;;5067528;28;20644;-65
2022/08/25 07:46:39;;;;;;;18.80;16.37;;;22.10;99.90;;;;;;5069395;28;20174;-65
2022/08/25 07:49:06;;;;;;;21.23;16.50;;;22.20;99.90;;;;;;5066235;28;20266;-65
2022/08/25 07:51:31;;;;;;;27.20;17.27;;;22.20;99.90;;;;;;5069413;28;20189;-65
2022/08/25 07:53:57;;;;;;;21.77;17.53;;;22.40;99.90;;;;;;5067425;28;20521;-65
2022/08/25 07:56:22;;;;;;;24.60;17.47;;;22.40;99.90;;;;;;5069063;28;20212;-68
2022/08/25 07:58:48;;;;;;;25.73;19.23;;;22.40;99.90;;;;;;5064946;28;20181;-64
2022/08/25 08:01:17;;;;;;;23.00;17.83;;;22.40;99.90;;;;;;5068873;28;20174;-66
2022/08/25 08:03:43;;;;;;;26.40;17.13;;;22.40;99.90;;;;;;5066779;28;20214;-66
2022/08/25 08:06:15;;;;;;;21.80;17.63;;;22.50;99.90;;;;;;5068494;28;20198;-65
2022/08/25 08:08:44;;;;;;;23.63;18.27;;;22.50;99.90;;;;;;5062553;28;20668;-65
2022/08/25 08:11:18;;;;;;;25.30;17.40;;;22.70;99.90;;;;;;5068512;28;20198;-65
2022/08/25 08:13:45;;;;;;;25.37;17.30;;;22.80;99.90;;;;;;5063211;28;20652;-66
2022/08/25 08:16:12;;;;;;;24.67;18.20;;;22.80;99.90;;;;;;5065570;28;20213;-68
2022/08/25 08:18:38;;;;;;;22.23;17.67;;;22.80;99.90;;;;;;5063716;28;20232;-68
2022/08/25 08:21:11;;;;;;;25.57;18.27;;;22.80;99.90;;;;;;5065476;28;20167;-68
2022/08/25 08:23:37;;;;;;;23.07;17.60;;;22.90;99.90;;;;;;5065169;28;20243;-65
2022/08/25 08:26:03;;;;;;;24.17;17.83;;;23.00;99.90;;;;;;5065072;28;20668;-64
2022/08/25 08:28:28;;;;;;;25.73;19.70;;;23.00;99.90;;;;;;5065210;28;20186;-66
2022/08/25 08:30:54;;;;;;;22.70;18.37;;;23.10;99.90;;;;;;5062606;28;20566;-65
2022/08/25 08:33:21;;;;;;;23.40;17.67;;;23.20;99.90;;;;;;5066696;28;20559;-65
2022/08/25 08:35:47;;;;;;;21.85;17.80;;;23.30;99.90;;;;;;5064456;28;20305;-65
2022/08/25 08:38:12;;;;;;;21.88;18.20;;;23.40;99.90;;;;;;5065548;28;20265;-65
2022/08/25 08:42:15;;;;;;;27.55;17.42;;;23.60;99.90;;;;;;5063823;28;20178;-65
2022/08/25 08:43:36;;;;;;;22.58;18.25;;;23.70;99.90;;;;;;5065420;28;20606;-68
2022/08/25 08:46:02;;;;;;;24.67;17.13;;;23.80;99.90;;;;;;5065683;28;20553;-66
2022/08/25 08:48:54;;;;;;;19.67;16.10;;;23.80;99.90;;;;;;5064304;28;20190;-66
2022/08/25 08:51:30;;;;;;;23.77;16.42;;;23.80;99.90;;;;;;5048672;28;20183;-66
2022/08/25 08:54:17;;;;;;;20.70;16.50;;;23.90;99.90;;;;;;5048546;28;20194;-66
2022/08/25 08:56:47;;;;;;;22.75;16.65;;;23.90;99.90;;;;;;5068884;28;20202;-66
2022/08/25 08:59:17;;;;;;;19.58;15.38;;;24.00;99.90;;;;;;5046980;28;20202;-66
2022/08/25 09:01:49;;;;;;;17.70;15.63;;;24.20;99.90;;;;;;5048544;28;20697;-65
2022/08/25 09:04:25;;;;;;;16.98;14.77;;;24.20;99.90;;;;;;5050458;28;20188;-66
2022/08/25 09:06:51;;;;;;;22.38;14.82;;;24.30;99.90;;;;;;5068035;28;20591;-65
2022/08/25 09:09:25;;;;;;;20.00;15.60;;;24.30;99.90;;;;;;5059178;28;20214;-65
2022/08/25 09:12:23;;;;;;;18.98;15.80;;;24.40;99.90;;;;;;5060528;28;20180;-64
2022/08/25 09:15:15;;;;;;;20.02;15.93;;;24.40;99.90;;;;;;5027395;28;20214;-67
2022/08/25 09:18:10;;;;;;;19.67;15.27;;;24.50;99.90;;;;;;5048739;28;20207;-87
2022/08/25 09:20:58;;;;;;;15.93;14.23;;;24.60;99.90;;;;;;5060596;28;20192;-64
2022/08/25 09:23:40;;;;;;;13.82;12.18;;;24.70;99.90;;;;;;5065152;28;20178;-66
2022/08/25 09:26:34;;;;;;;18.23;12.75;;;24.90;99.90;;;;;;5064847;28;20202;-67
2022/08/25 09:29:08;;;;;;;11.95;10.75;;;25.00;99.90;;;;;;5064516;28;20178;-65
2022/08/25 09:31:37;;;;;;;13.15;11.30;;;25.10;99.90;;;;;;5068103;28;20183;-66
2022/08/25 09:34:10;;;;;;;12.38;10.80;;;25.20;99.90;;;;;;5063604;28;20209;-65
2022/08/25 09:36:36;;;;;;;10.85;9.85;;;25.30;99.90;;;;;;5069347;28;20653;-64
2022/08/25 09:39:01;;;;;;;12.50;11.02;;;25.30;99.90;;;;;;5065103;28;20219;-64
2022/08/25 09:41:44;;;;;;;13.88;9.85;;;25.50;99.90;;;;;;5070738;28;20175;-65
2022/08/25 09:44:20;;;;;;;21.38;10.50;;;25.70;99.90;;;;;;5067242;28;20636;-65
2022/08/25 09:47:00;;;;;;;14.88;9.20;;;25.70;99.90;;;;;;5071664;28;20273;-66
2022/08/25 09:49:33;;;;;;;14.48;10.45;;;25.80;99.90;;;;;;5053926;28;20276;-66
2022/08/25 09:52:21;;;;;;;12.43;9.77;;;25.90;99.90;;;;;;5071559;28;20197;-65
2022/08/25 09:55:28;;;;;;;12.15;9.38;;;25.90;99.90;;;;;;5056195;28;20196;-79
2022/08/25 09:57:56;;;;;;;11.85;10.50;;;25.60;99.90;;;;;;5051750;28;20227;-67
2022/08/25 10:00:32;;;;;;;11.05;9.93;;;25.50;99.90;;;;;;5065261;28;20208;-66
2022/08/25 10:03:06;;;;;;;11.43;10.43;;;25.50;99.90;;;;;;5068886;28;20175;-66
2022/08/25 10:05:36;;;;;;;13.70;10.02;;;25.60;99.90;;;;;;5064632;28;20200;-66
2022/08/25 10:08:09;;;;;;;11.68;10.15;;;25.70;99.90;;;;;;5069054;28;20187;-67
2022/08/25 10:10:43;;;;;;;15.25;9.63;;;25.60;99.90;;;;;;5066308;28;20191;-66
2022/08/25 10:13:18;;;;;;;13.63;10.05;;;25.40;99.90;;;;;;5069938;28;20807;-67
2022/08/25 10:15:44;;;;;;;12.38;9.82;;;25.40;99.90;;;;;;5065921;28;20206;-65
2022/08/25 10:18:27;;;;;;;15.17;9.77;;;25.30;99.90;;;;;;5070118;28;20189;-64
2022/08/25 10:21:11;;;;;;;11.77;10.32;;;25.30;99.90;;;;;;5066997;28;20598;-65
2022/08/25 10:23:43;;;;;;;13.43;9.50;;;25.30;99.90;;;;;;5068140;28;20643;-65
2022/08/25 10:26:29;;;;;;;10.35;9.27;;;25.50;99.90;;;;;;5064864;28;20653;-64
2022/08/25 10:29:24;;;;;;;11.90;8.32;;;25.50;99.90;;;;;;5050517;28;20444;-64
2022/08/25 10:31:58;;;;;;;10.20;9.00;;;25.50;99.90;;;;;;5056168;28;20202;-67
2022/08/25 10:34:52;;;;;;;12.63;9.05;;;25.60;99.90;;;;;;5067417;28;20263;-64
2022/08/25 10:37:34;;;;;;;9.48;8.25;;;25.70;99.90;;;;;;5063378;28;20218;-64
2022/08/25 10:40:20;;;;;;;11.15;8.68;;;25.90;99.90;;;;;;5064975;28;20230;-64
2022/08/25 10:43:06;;;;;;;10.10;7.38;;;26.20;99.90;;;;;;5050696;28;20185;-66
2022/08/25 10:45:42;;;;;;;14.65;7.95;;;26.50;99.90;;;;;;5060172;28;20636;-64
2022/08/25 10:48:47;;;;;;;12.98;8.15;;;26.80;99.90;;;;;;5049832;28;20235;-63
2022/08/25 10:51:32;;;;;;;9.25;7.00;;;26.90;99.90;;;;;;5065546;28;20207;-64
2022/08/25 10:54:08;;;;;;;9.07;6.47;;;26.90;99.90;;;;;;5049815;28;20264;-63
2022/08/25 10:56:40;;;;;;;10.82;7.88;;;27.00;99.90;;;;;;5068628;28;20642;-66
2022/08/25 10:59:15;;;;;;;9.13;6.70;;;27.30;99.90;;;;;;5068751;28;20620;-63
2022/08/25 11:02:07;;;;;;;8.48;7.68;;;27.50;99.90;;;;;;5068638;28;20264;-63
2022/08/25 11:04:58;;;;;;;12.52;7.55;;;27.80;99.90;;;;;;5064041;28;20267;-64
2022/08/25 11:07:36;;;;;;;8.70;7.13;;;27.80;99.90;;;;;;5069126;28;21189;-64
2022/08/25 11:10:12;;;;;;;10.40;6.88;;;27.90;99.90;;;;;;5066044;28;20223;-63
2022/08/25 11:12:44;;;;;;;9.18;7.05;;;27.90;99.90;;;;;;5069273;28;20181;-65
2022/08/25 11:15:16;;;;;;;9.40;7.40;;;28.00;99.90;;;;;;5064530;28;20534;-66
2022/08/25 11:17:56;;;;;;;10.38;6.43;;;28.20;99.90;;;;;;5068823;28;20241;-67
2022/08/25 11:20:27;;;;;;;8.35;6.90;;;28.50;99.90;;;;;;5064554;28;20651;-65
2022/08/25 11:23:21;;;;;;;9.95;7.13;;;28.70;99.90;;;;;;5067675;28;20209;-66
2022/08/25 11:25:51;;;;;;;9.88;7.25;;;28.70;99.90;;;;;;5061834;28;20205;-67
2022/08/25 11:28:25;;;;;;;10.30;7.18;;;28.40;99.90;;;;;;5068254;28;20525;-67
2022/08/25 11:30:54;;;;;;;7.90;6.40;;;28.20;99.90;;;;;;5065585;28;20322;-67
2022/08/25 11:33:23;;;;;;;12.13;7.32;;;28.20;99.90;;;;;;5068414;28;20206;-65
2022/08/25 11:35:55;;;;;;;11.90;6.60;;;28.30;99.90;;;;;;5061804;28;20212;-66
2022/08/25 11:38:34;;;;;;;11.38;7.82;;;28.40;99.90;;;;;;5049480;28;20186;-65
2022/08/25 11:41:26;;;;;;;8.95;6.88;;;28.30;99.90;;;;;;5061445;28;20205;-65
2022/08/25 11:44:18;;;;;;;10.77;7.20;;;28.20;99.90;;;;;;5049055;28;20219;-79
2022/08/25 11:47:08;;;;;;;7.25;6.55;;;28.30;99.90;;;;;;5066990;28;20200;-64
2022/08/25 11:49:39;;;;;;;11.25;6.82;;;28.50;99.90;;;;;;5048861;28;20230;-79
2022/08/25 11:52:28;;;;;;;17.45;6.53;;;28.50;99.90;;;;;;5069145;28;20300;-74
2022/08/25 11:54:54;;;;;;;8.60;7.35;;;28.50;99.90;;;;;;5051390;28;20206;-65
2022/08/25 11:57:25;;;;;;;12.95;7.93;;;28.70;99.90;;;;;;5068025;28;20205;-66
2022/08/25 11:59:56;;;;;;;9.05;6.03;;;28.80;99.90;;;;;;5060517;28;20290;-67
2022/08/25 12:02:47;;;;;;;11.90;6.72;;;28.90;99.90;;;;;;5068380;28;20166;-65
2022/08/25 12:05:16;;;;;;;10.00;6.25;;;29.20;99.90;;;;;;5061171;28;20232;-65
2022/08/25 12:11:00;;;;;;;6.93;6.22;;;29.50;99.90;;;;;;5062993;28;20205;-65
2022/08/25 12:13:40;;;;;;;12.70;6.75;;;29.60;99.90;;;;;;5066611;28;20635;-65
2022/08/25 12:16:27;;;;;;;9.35;6.30;;;29.70;99.90;;;;;;5066087;28;20288;-65
2022/08/25 12:18:52;;;;;;;9.85;5.75;;;29.70;99.90;;;;;;5064765;28;20175;-65
2022/08/25 12:21:29;;;;;;;7.72;6.93;;;29.70;99.90;;;;;;5063721;28;20695;-65
2022/08/25 12:24:11;;;;;;;7.38;6.20;;;29.80;99.90;;;;;;5067768;28;20178;-65
2022/08/25 12:26:50;;;;;;;10.10;5.88;;;29.70;99.90;;;;;;5048438;28;20203;-65
2022/08/25 12:29:26;;;;;;;9.85;6.13;;;29.70;99.90;;;;;;5048134;28;20220;-65
2022/08/25 12:32:06;;;;;;;6.65;5.93;;;29.70;99.90;;;;;;5065690;28;20279;-65
2022/08/25 12:34:57;;;;;;;7.38;6.05;;;29.50;99.90;;;;;;5046234;28;20548;-65
2022/08/25 12:37:24;;;;;;;7.00;4.97;;;29.30;99.90;;;;;;5067883;28;20202;-65
2022/08/25 12:39:50;;;;;;;6.57;5.55;;;29.20;99.90;;;;;;5046553;28;20194;-66
2022/08/25 12:42:37;;;;;;;7.05;5.53;;;29.40;99.90;;;;;;5048113;28;20672;-64
2022/08/25 12:45:34;;;;;;;8.23;6.30;;;29.90;99.90;;;;;;5065727;28;20197;-64
2022/08/25 12:48:33;;;;;;;11.18;6.95;;;30.40;99.30;;;;;;5062549;28;20206;-65
2022/08/25 12:51:09;;;;;;;12.50;6.55;;;30.40;99.00;;;;;;5065206;28;20229;-65
2022/08/25 12:53:48;;;;;;;13.88;6.05;;;30.40;99.30;;;;;;5047788;28;20623;-65
2022/08/25 12:56:26;;;;;;;10.18;6.93;;;30.50;98.80;;;;;;5059626;28;20301;-65
2022/08/25 12:59:16;;;;;;;8.57;5.65;;;30.40;98.50;;;;;;5066503;28;20185;-65
2022/08/25 13:02:09;;;;;;;14.35;6.10;;;30.20;98.60;;;;;;5063709;28;20194;-65